sensor_id;sensor_type;location;lat;lon;timestamp;pressure;altitude;pressure_sealevel;temperature;humidity
48792;BME280;34587;48.816;9.420;2022-12-29T00:01:31;98397.47;;;5.14;82.41
48792;BME280;34587;48.816;9.420;2022-12-29T00:03:56;98406.84;;;5.21;81.79
48792;BME280;34587;48.816;9.420;2022-12-29T00:06:22;98391.47;;;5.18;81.84
48792;BME280;34587;48.816;9.420;2022-12-29T00:08:47;98401.75;;;5.18;80.81
48792;BME280;34587;48.816;9.420;2022-12-29T00:11:21;98398.38;;;4.85;82.72
48792;BME280;34587;48.816;9.420;2022-12-29T00:13:47;98400.09;;;4.89;83.07
48792;BME280;34587;48.816;9.420;2022-12-29T00:16:32;98400.97;;;4.75;83.75
48792;BME280;34587;48.816;9.420;2022-12-29T00:18:58;98402.66;;;4.89;83.85
48792;BME280;34587;48.816;9.420;2022-12-29T00:21:24;98404.34;;;4.78;84.73
48792;BME280;34587;48.816;9.420;2022-12-29T00:24:14;98384.72;;;4.71;85.54
48792;BME280;34587;48.816;9.420;2022-12-29T00:26:58;98369.28;;;4.86;85.82
48792;BME280;34587;48.816;9.420;2022-12-29T00:29:43;98373.56;;;4.95;84.29
48792;BME280;34587;48.816;9.420;2022-12-29T00:32:27;98372.66;;;4.98;84.13
48792;BME280;34587;48.816;9.420;2022-12-29T00:35:15;98358.94;;;5.14;82.89
48792;BME280;34587;48.816;9.420;2022-12-29T00:37:45;98368.38;;;5.06;83.84
48792;BME280;34587;48.816;9.420;2022-12-29T00:40:29;98367.53;;;4.98;84.18
48792;BME280;34587;48.816;9.420;2022-12-29T00:43:13;98360.63;;;5.21;82.74
48792;BME280;34587;48.816;9.420;2022-12-29T00:45:57;98352.94;;;5.18;83.31
48792;BME280;34587;48.816;9.420;2022-12-29T00:48:22;98360.66;;;5.18;83.19
48792;BME280;34587;48.816;9.420;2022-12-29T00:51:07;98355.47;;;5.33;83.18
48792;BME280;34587;48.816;9.420;2022-12-29T00:53:33;98357.16;;;5.31;83.23
48792;BME280;34587;48.816;9.420;2022-12-29T00:55:58;98350.28;;;5.43;82.74
48792;BME280;34587;48.816;9.420;2022-12-29T00:58:27;98354.47;;;5.59;81.47
48792;BME280;34587;48.816;9.420;2022-12-29T05:15:37;98282.84;;;9.65;66.63
48792;BME280;34587;48.816;9.420;2022-12-29T05:18:02;98275.78;;;9.73;66.14
48792;BME280;34587;48.816;9.420;2022-12-29T05:20:27;98280.97;;;9.73;66.36
48792;BME280;34587;48.816;9.420;2022-12-29T05:22:53;98276.75;;;10.04;64.99
48792;BME280;34587;48.816;9.420;2022-12-29T05:25:18;98284.41;;;10.09;64.48
48792;BME280;34587;48.816;9.420;2022-12-29T05:27:43;98283.09;;;10.30;63.32
48792;BME280;34587;48.816;9.420;2022-12-29T05:32:36;98273.88;;;10.52;62.13
48792;BME280;34587;48.816;9.420;2022-12-29T05:35:02;98258.16;;;10.59;61.71
48792;BME280;34587;48.816;9.420;2022-12-29T05:37:27;98263.66;;;10.46;62.29
48792;BME280;34587;48.816;9.420;2022-12-29T05:39:53;98253.25;;;10.80;60.80
48792;BME280;34587;48.816;9.420;2022-12-29T05:42:18;98259.34;;;10.78;61.17
48792;BME280;34587;48.816;9.420;2022-12-29T05:44:43;98260.25;;;10.77;60.78
48792;BME280;34587;48.816;9.420;2022-12-29T05:47:09;98266.91;;;10.54;61.76
48792;BME280;34587;48.816;9.420;2022-12-29T05:49:34;98265.53;;;10.74;61.33
48792;BME280;34587;48.816;9.420;2022-12-29T05:51:59;98270.53;;;10.47;62.27
48792;BME280;34587;48.816;9.420;2022-12-29T05:54:24;98259.69;;;10.33;62.82
48792;BME280;34587;48.816;9.420;2022-12-29T05:56:50;98257.94;;;10.35;62.22
48792;BME280;34587;48.816;9.420;2022-12-29T05:59:15;98268.91;;;10.43;61.98
48792;BME280;34587;48.816;9.420;2022-12-29T06:01:40;98262.91;;;10.75;61.42
48792;BME280;34587;48.816;9.420;2022-12-29T06:04:06;98265.31;;;10.81;60.35
48792;BME280;34587;48.816;9.420;2022-12-29T06:06:31;98268.81;;;10.80;60.77
48792;BME280;34587;48.816;9.420;2022-12-29T06:08:56;98277.19;;;10.58;61.14
48792;BME280;34587;48.816;9.420;2022-12-29T06:11:21;98266.03;;;10.88;59.37
48792;BME280;34587;48.816;9.420;2022-12-29T06:13:47;98262.59;;;10.86;59.36
48792;BME280;34587;48.816;9.420;2022-12-29T06:16:12;98263.81;;;10.73;59.52
48792;BME280;34587;48.816;9.420;2022-12-29T06:18:37;98249.59;;;10.57;60.32
48792;BME280;34587;48.816;9.420;2022-12-29T06:21:04;98242.88;;;10.49;60.74
48792;BME280;34587;48.816;9.420;2022-12-29T06:23:30;98232.25;;;10.59;60.01
48792;BME280;34587;48.816;9.420;2022-12-29T06:25:56;98232.03;;;10.97;58.38
48792;BME280;34587;48.816;9.420;2022-12-29T06:28:22;98245.69;;;10.73;59.16
48792;BME280;34587;48.816;9.420;2022-12-29T06:30:47;98250.53;;;10.54;60.41
48792;BME280;34587;48.816;9.420;2022-12-29T06:33:14;98255.00;;;10.47;60.52
48792;BME280;34587;48.816;9.420;2022-12-29T06:35:39;98264.88;;;10.66;59.87
48792;BME280;34587;48.816;9.420;2022-12-29T06:38:04;98266.53;;;10.36;60.95
48792;BME280;34587;48.816;9.420;2022-12-29T06:40:30;98261.94;;;10.47;60.22
48792;BME280;34587;48.816;9.420;2022-12-29T06:42:56;98260.78;;;10.23;60.48
48792;BME280;34587;48.816;9.420;2022-12-29T06:45:21;98263.75;;;10.43;60.61
48792;BME280;34587;48.816;9.420;2022-12-29T06:47:46;98264.34;;;10.54;59.85
48792;BME280;34587;48.816;9.420;2022-12-29T06:50:12;98260.50;;;10.68;59.27
48792;BME280;34587;48.816;9.420;2022-12-29T06:52:37;98251.50;;;10.50;60.34
48792;BME280;34587;48.816;9.420;2022-12-29T06:55:03;98256.88;;;10.42;60.30
48792;BME280;34587;48.816;9.420;2022-12-29T06:57:28;98253.16;;;10.52;60.03
48792;BME280;34587;48.816;9.420;2022-12-29T06:59:53;98247.59;;;10.97;58.25
48792;BME280;34587;48.816;9.420;2022-12-29T07:02:21;98240.97;;;10.87;58.38
48792;BME280;34587;48.816;9.420;2022-12-29T07:04:46;98241.53;;;10.98;58.14
48792;BME280;34587;48.816;9.420;2022-12-29T07:07:11;98238.72;;;11.06;57.76
48792;BME280;34587;48.816;9.420;2022-12-29T07:09:37;98238.63;;;11.09;57.71
48792;BME280;34587;48.816;9.420;2022-12-29T07:12:02;98239.66;;;11.03;58.44
48792;BME280;34587;48.816;9.420;2022-12-29T07:14:27;98249.66;;;11.16;57.48
48792;BME280;34587;48.816;9.420;2022-12-29T07:16:53;98234.13;;;11.16;58.06
48792;BME280;34587;48.816;9.420;2022-12-29T07:19:18;98237.75;;;11.10;58.55
48792;BME280;34587;48.816;9.420;2022-12-29T07:21:43;98235.47;;;11.29;57.77
48792;BME280;34587;48.816;9.420;2022-12-29T07:24:09;98247.34;;;11.06;58.49
48792;BME280;34587;48.816;9.420;2022-12-29T07:26:34;98239.88;;;11.25;57.74
48792;BME280;34587;48.816;9.420;2022-12-29T07:29:01;98235.72;;;11.20;58.02
48792;BME280;34587;48.816;9.420;2022-12-29T07:31:27;98239.94;;;11.24;57.78
48792;BME280;34587;48.816;9.420;2022-12-29T07:33:52;98251.22;;;11.23;57.63
48792;BME280;34587;48.816;9.420;2022-12-29T07:36:17;98243.25;;;11.29;57.94
48792;BME280;34587;48.816;9.420;2022-12-29T07:38:43;98249.31;;;11.28;57.68
48792;BME280;34587;48.816;9.420;2022-12-29T07:41:08;98252.84;;;11.25;57.96
48792;BME280;34587;48.816;9.420;2022-12-29T07:43:34;98253.41;;;11.37;57.34
48792;BME280;34587;48.816;9.420;2022-12-29T07:45:59;98271.03;;;11.53;56.45
48792;BME280;34587;48.816;9.420;2022-12-29T07:48:25;98256.47;;;11.49;57.83
48792;BME280;34587;48.816;9.420;2022-12-29T07:50:50;98263.31;;;11.52;56.96
48792;BME280;34587;48.816;9.420;2022-12-29T07:53:15;98265.84;;;11.53;57.47
48792;BME280;34587;48.816;9.420;2022-12-29T07:55:41;98263.06;;;11.59;57.15
48792;BME280;34587;48.816;9.420;2022-12-29T07:58:06;98262.34;;;11.56;57.32
48792;BME280;34587;48.816;9.420;2022-12-29T08:00:32;98279.34;;;11.65;56.80
48792;BME280;34587;48.816;9.420;2022-12-29T08:02:57;98284.22;;;11.75;56.74
48792;BME280;34587;48.816;9.420;2022-12-29T08:05:22;98275.59;;;11.75;56.79
48792;BME280;34587;48.816;9.420;2022-12-29T08:07:48;98275.22;;;11.87;56.45
48792;BME280;34587;48.816;9.420;2022-12-29T08:10:14;98268.22;;;11.89;56.68
48792;BME280;34587;48.816;9.420;2022-12-29T08:12:40;98273.13;;;11.98;55.90
48792;BME280;34587;48.816;9.420;2022-12-29T08:15:07;98274.66;;;12.05;55.56
48792;BME280;34587;48.816;9.420;2022-12-29T08:17:33;98283.16;;;12.11;55.77
48792;BME280;34587;48.816;9.420;2022-12-29T08:19:58;98284.63;;;12.18;55.41
48792;BME280;34587;48.816;9.420;2022-12-29T08:22:24;98284.47;;;12.24;55.66
48792;BME280;34587;48.816;9.420;2022-12-29T08:24:49;98286.25;;;12.22;55.64
48792;BME280;34587;48.816;9.420;2022-12-29T08:27:14;98294.28;;;12.14;55.83
48792;BME280;34587;48.816;9.420;2022-12-29T08:29:40;98289.97;;;12.13;55.57
48792;BME280;34587;48.816;9.420;2022-12-29T08:32:05;98293.75;;;12.04;56.40
48792;BME280;34587;48.816;9.420;2022-12-29T08:34:32;98286.81;;;12.03;56.28
48792;BME280;34587;48.816;9.420;2022-12-29T08:36:57;98285.25;;;11.99;56.45
48792;BME280;34587;48.816;9.420;2022-12-29T08:39:23;98283.28;;;12.06;56.72
48792;BME280;34587;48.816;9.420;2022-12-29T08:41:48;98281.03;;;12.22;55.57
48792;BME280;34587;48.816;9.420;2022-12-29T08:44:13;98284.16;;;12.33;55.27
48792;BME280;34587;48.816;9.420;2022-12-29T08:46:39;98298.03;;;12.32;55.50
48792;BME280;34587;48.816;9.420;2022-12-29T08:49:04;98288.47;;;12.32;55.42
48792;BME280;34587;48.816;9.420;2022-12-29T08:51:29;98278.63;;;12.42;54.95
48792;BME280;34587;48.816;9.420;2022-12-29T08:53:54;98263.03;;;12.42;55.18
48792;BME280;34587;48.816;9.420;2022-12-29T08:56:20;98282.69;;;12.51;54.32
48792;BME280;34587;48.816;9.420;2022-12-29T08:58:45;98287.78;;;12.54;54.21
48792;BME280;34587;48.816;9.420;2022-12-29T09:01:11;98288.41;;;12.60;54.21
48792;BME280;34587;48.816;9.420;2022-12-29T09:03:36;98299.66;;;12.61;54.00
48792;BME280;34587;48.816;9.420;2022-12-29T09:06:01;98289.91;;;12.68;53.64
48792;BME280;34587;48.816;9.420;2022-12-29T09:08:27;98290.22;;;12.58;54.11
48792;BME280;34587;48.816;9.420;2022-12-29T09:10:52;98297.97;;;12.60;54.21
48792;BME280;34587;48.816;9.420;2022-12-29T09:13:18;98297.06;;;12.61;53.57
48792;BME280;34587;48.816;9.420;2022-12-29T09:15:44;98305.38;;;12.46;54.37
48792;BME280;34587;48.816;9.420;2022-12-29T09:18:10;98300.84;;;12.52;53.80
48792;BME280;34587;48.816;9.420;2022-12-29T09:20:36;98304.97;;;12.58;53.94
48792;BME280;34587;48.816;9.420;2022-12-29T09:23:02;98314.19;;;12.67;53.47
48792;BME280;34587;48.816;9.420;2022-12-29T09:25:28;98316.00;;;12.65;54.29
48792;BME280;34587;48.816;9.420;2022-12-29T09:27:53;98313.47;;;12.63;53.79
48792;BME280;34587;48.816;9.420;2022-12-29T09:30:20;98314.94;;;12.70;52.72
48792;BME280;34587;48.816;9.420;2022-12-29T09:32:47;98319.28;;;12.70;53.93
48792;BME280;34587;48.816;9.420;2022-12-29T09:35:14;98313.19;;;12.71;53.53
48792;BME280;34587;48.816;9.420;2022-12-29T09:37:39;98314.94;;;12.70;52.99
48792;BME280;34587;48.816;9.420;2022-12-29T09:40:06;98318.00;;;12.56;53.62
48792;BME280;34587;48.816;9.420;2022-12-29T09:45:32;98315.38;;;12.58;53.96
48792;BME280;34587;48.816;9.420;2022-12-29T09:48:00;98318.84;;;12.57;54.52
48792;BME280;34587;48.816;9.420;2022-12-29T09:50:27;98325.00;;;12.54;54.15
48792;BME280;34587;48.816;9.420;2022-12-29T09:52:55;98323.19;;;12.56;53.58
48792;BME280;34587;48.816;9.420;2022-12-29T09:55:40;98321.50;;;12.55;54.62
48792;BME280;34587;48.816;9.420;2022-12-29T09:58:24;98312.50;;;12.66;54.03
48792;BME280;34587;48.816;9.420;2022-12-29T10:01:06;98324.41;;;12.73;53.60
48792;BME280;34587;48.816;9.420;2022-12-29T10:03:47;98310.50;;;12.74;53.99
48792;BME280;34587;48.816;9.420;2022-12-29T10:06:17;98308.78;;;12.98;53.08
48792;BME280;34587;48.816;9.420;2022-12-29T10:12:01;98313.69;;;13.07;53.38
48792;BME280;34587;48.816;9.420;2022-12-29T10:25:26;98305.97;;;12.79;54.47
48792;BME280;34587;48.816;9.420;2022-12-29T10:27:56;98306.97;;;12.75;54.97
48792;BME280;34587;48.816;9.420;2022-12-29T10:30:23;98308.19;;;12.65;55.27
48792;BME280;34587;48.816;9.420;2022-12-29T10:32:55;98310.03;;;12.63;56.06
48792;BME280;34587;48.816;9.420;2022-12-29T10:35:24;98322.59;;;12.75;55.92
48792;BME280;34587;48.816;9.420;2022-12-29T10:40:37;98309.50;;;12.78;55.31
48792;BME280;34587;48.816;9.420;2022-12-29T10:45:53;98304.28;;;12.78;56.18
48792;BME280;34587;48.816;9.420;2022-12-29T10:48:22;98303.28;;;12.82;56.13
48792;BME280;34587;48.816;9.420;2022-12-29T10:50:50;98307.81;;;13.00;56.05
48792;BME280;34587;48.816;9.420;2022-12-29T10:53:20;98293.03;;;13.51;55.07
48792;BME280;34587;48.816;9.420;2022-12-29T10:55:47;98280.81;;;15.79;48.97
48792;BME280;34587;48.816;9.420;2022-12-29T10:58:14;98292.88;;;15.04;50.29
48792;BME280;34587;48.816;9.420;2022-12-29T11:00:40;98300.69;;;13.99;52.59
48792;BME280;34587;48.816;9.420;2022-12-29T11:05:53;98298.47;;;13.67;53.73
48792;BME280;34587;48.816;9.420;2022-12-29T11:08:23;98296.56;;;13.72;53.52
48792;BME280;34587;48.816;9.420;2022-12-29T11:11:07;98290.53;;;13.93;53.33
48792;BME280;34587;48.816;9.420;2022-12-29T11:13:57;98291.22;;;14.19;52.54
48792;BME280;34587;48.816;9.420;2022-12-29T11:16:41;98292.25;;;14.14;53.15
48792;BME280;34587;48.816;9.420;2022-12-29T11:19:20;98285.47;;;13.67;54.45
48792;BME280;34587;48.816;9.420;2022-12-29T11:21:46;98292.16;;;13.50;54.11
48792;BME280;34587;48.816;9.420;2022-12-29T11:24:27;98285.97;;;13.31;55.18
48792;BME280;34587;48.816;9.420;2022-12-29T11:26:55;98295.97;;;13.17;55.64
48792;BME280;34587;48.816;9.420;2022-12-29T11:29:27;98296.75;;;13.19;56.07
48792;BME280;34587;48.816;9.420;2022-12-29T11:31:55;98305.41;;;13.19;56.85
48792;BME280;34587;48.816;9.420;2022-12-29T11:34:33;98298.00;;;13.08;56.67
48792;BME280;34587;48.816;9.420;2022-12-29T11:37:04;98296.91;;;13.16;55.79
48792;BME280;34587;48.816;9.420;2022-12-29T11:39:52;98291.78;;;13.12;56.45
48792;BME280;34587;48.816;9.420;2022-12-29T11:42:23;98290.34;;;13.05;56.23
48792;BME280;34587;48.816;9.420;2022-12-29T11:44:55;98300.53;;;13.10;56.01
48792;BME280;34587;48.816;9.420;2022-12-29T11:47:25;98296.25;;;13.09;56.92
48792;BME280;34587;48.816;9.420;2022-12-29T11:49:54;98302.19;;;13.12;56.81
48792;BME280;34587;48.816;9.420;2022-12-29T11:52:22;98303.53;;;12.99;56.29
48792;BME280;34587;48.816;9.420;2022-12-29T11:54:49;98311.78;;;12.87;57.01
48792;BME280;34587;48.816;9.420;2022-12-29T11:57:17;98318.03;;;12.81;57.53
48792;BME280;34587;48.816;9.420;2022-12-29T11:59:49;98316.44;;;12.77;58.17
48792;BME280;34587;48.816;9.420;2022-12-29T12:02:24;98313.09;;;12.74;58.90
48792;BME280;34587;48.816;9.420;2022-12-29T12:05:33;98315.25;;;12.61;59.43
48792;BME280;34587;48.816;9.420;2022-12-29T12:07:57;98304.75;;;12.64;60.14
48792;BME280;34587;48.816;9.420;2022-12-29T12:10:29;98304.53;;;12.70;60.02
48792;BME280;34587;48.816;9.420;2022-12-29T12:13:03;98303.16;;;12.60;60.23
48792;BME280;34587;48.816;9.420;2022-12-29T12:15:37;98316.53;;;12.49;60.92
48792;BME280;34587;48.816;9.420;2022-12-29T12:18:20;98303.06;;;12.63;62.39
48792;BME280;34587;48.816;9.420;2022-12-29T12:20:57;98300.53;;;12.86;62.02
48792;BME280;34587;48.816;9.420;2022-12-29T12:23:32;98298.88;;;12.84;62.27
48792;BME280;34587;48.816;9.420;2022-12-29T12:28:45;98305.06;;;12.80;62.79
48792;BME280;34587;48.816;9.420;2022-12-29T12:31:18;98302.00;;;12.94;62.45
48792;BME280;34587;48.816;9.420;2022-12-29T12:33:50;98303.06;;;12.88;60.54
48792;BME280;34587;48.816;9.420;2022-12-29T12:36:34;98302.84;;;12.69;61.63
48792;BME280;34587;48.816;9.420;2022-12-29T12:39:40;98300.53;;;12.86;61.14
48792;BME280;34587;48.816;9.420;2022-12-29T12:42:20;98294.44;;;12.86;60.92
48792;BME280;34587;48.816;9.420;2022-12-29T12:51:15;98283.66;;;12.73;60.77
48792;BME280;34587;48.816;9.420;2022-12-29T13:02:13;98281.59;;;12.31;63.84
48792;BME280;34587;48.816;9.420;2022-12-29T13:04:52;98285.72;;;12.37;64.82
48792;BME280;34587;48.816;9.420;2022-12-29T13:16:48;98274.94;;;12.49;64.89
48792;BME280;34587;48.816;9.420;2022-12-29T13:19:10;98280.84;;;12.54;65.15
48792;BME280;34587;48.816;9.420;2022-12-29T13:22:18;98276.00;;;12.69;64.81
48792;BME280;34587;48.816;9.420;2022-12-29T13:27:43;98277.00;;;12.65;65.01
48792;BME280;34587;48.816;9.420;2022-12-29T13:30:19;98281.75;;;12.78;64.83
48792;BME280;34587;48.816;9.420;2022-12-29T13:38:12;98275.03;;;12.46;65.42
48792;BME280;34587;48.816;9.420;2022-12-29T13:40:44;98261.78;;;12.29;66.08
48792;BME280;34587;48.816;9.420;2022-12-29T13:43:12;98274.78;;;12.27;66.65
48792;BME280;34587;48.816;9.420;2022-12-29T13:45:39;98282.34;;;12.35;65.88
48792;BME280;34587;48.816;9.420;2022-12-29T13:48:17;98267.28;;;12.20;65.73
48792;BME280;34587;48.816;9.420;2022-12-29T13:50:50;98268.03;;;12.23;65.67
48792;BME280;34587;48.816;9.420;2022-12-29T13:53:33;98271.50;;;12.22;66.12
48792;BME280;34587;48.816;9.420;2022-12-29T13:59:30;98272.34;;;12.23;65.68
48792;BME280;34587;48.816;9.420;2022-12-29T14:01:58;98273.38;;;12.19;65.32
48792;BME280;34587;48.816;9.420;2022-12-29T14:04:29;98277.53;;;12.23;65.77
48792;BME280;34587;48.816;9.420;2022-12-29T14:07:18;98263.47;;;12.30;65.63
48792;BME280;34587;48.816;9.420;2022-12-29T14:09:57;98279.25;;;12.24;65.58
48792;BME280;34587;48.816;9.420;2022-12-29T14:12:40;98275.75;;;12.25;65.67
48792;BME280;34587;48.816;9.420;2022-12-29T14:17:35;98266.63;;;12.65;64.17
48792;BME280;34587;48.816;9.420;2022-12-29T14:20:02;98267.31;;;12.70;64.25
48792;BME280;34587;48.816;9.420;2022-12-29T14:22:28;98265.84;;;12.63;64.46
48792;BME280;34587;48.816;9.420;2022-12-29T14:24:54;98273.31;;;12.72;64.73
48792;BME280;34587;48.816;9.420;2022-12-29T14:29:46;98282.25;;;12.38;65.53
48792;BME280;34587;48.816;9.420;2022-12-29T14:34:57;98282.66;;;12.26;66.71
48792;BME280;34587;48.816;9.420;2022-12-29T14:37:28;98286.03;;;12.01;67.85
48792;BME280;34587;48.816;9.420;2022-12-29T14:40:22;98281.84;;;11.97;67.91
48792;BME280;34587;48.816;9.420;2022-12-29T14:42:53;98288.72;;;11.98;68.19
48792;BME280;34587;48.816;9.420;2022-12-29T14:47:49;98273.13;;;11.98;67.51
48792;BME280;34587;48.816;9.420;2022-12-29T14:50:22;98278.63;;;11.89;68.81
48792;BME280;34587;48.816;9.420;2022-12-29T14:53:06;98291.06;;;11.78;68.80
48792;BME280;34587;48.816;9.420;2022-12-29T14:58:22;98286.34;;;11.63;69.30
48792;BME280;34587;48.816;9.420;2022-12-29T15:00:51;98285.84;;;11.50;70.21
48792;BME280;34587;48.816;9.420;2022-12-29T15:03:23;98284.59;;;11.33;71.10
48792;BME280;34587;48.816;9.420;2022-12-29T15:05:55;98281.81;;;11.41;70.73
48792;BME280;34587;48.816;9.420;2022-12-29T15:08:24;98285.09;;;11.46;70.69
48792;BME280;34587;48.816;9.420;2022-12-29T15:10:55;98285.19;;;11.43;71.13
48792;BME280;34587;48.816;9.420;2022-12-29T15:13:24;98287.00;;;11.41;70.29
48792;BME280;34587;48.816;9.420;2022-12-29T15:15:50;98291.72;;;11.27;71.01
48792;BME280;34587;48.816;9.420;2022-12-29T15:18:29;98286.66;;;11.22;71.65
48792;BME280;34587;48.816;9.420;2022-12-29T15:21:00;98285.97;;;11.16;71.49
48792;BME280;34587;48.816;9.420;2022-12-29T15:23:26;98283.84;;;11.30;70.71
48792;BME280;34587;48.816;9.420;2022-12-29T15:26:00;98280.22;;;11.36;70.47
48792;BME280;34587;48.816;9.420;2022-12-29T15:28:27;98273.47;;;11.30;70.58
48792;BME280;34587;48.816;9.420;2022-12-29T15:30:56;98274.56;;;11.21;71.08
48792;BME280;34587;48.816;9.420;2022-12-29T15:33:24;98284.09;;;11.21;70.54
48792;BME280;34587;48.816;9.420;2022-12-29T15:35:52;98285.81;;;11.22;70.86
48792;BME280;34587;48.816;9.420;2022-12-29T15:38:23;98282.31;;;11.23;71.04
48792;BME280;34587;48.816;9.420;2022-12-29T15:40:58;98287.25;;;11.32;70.31
48792;BME280;34587;48.816;9.420;2022-12-29T15:46:02;98293.72;;;11.17;70.87
48792;BME280;34587;48.816;9.420;2022-12-29T15:48:28;98292.59;;;11.26;70.22
48792;BME280;34587;48.816;9.420;2022-12-29T15:50:55;98297.78;;;11.26;69.99
48792;BME280;34587;48.816;9.420;2022-12-29T15:55:51;98304.06;;;11.48;67.88
48792;BME280;34587;48.816;9.420;2022-12-29T15:58:22;98308.34;;;11.49;68.22
48792;BME280;34587;48.816;9.420;2022-12-29T16:00:53;98311.06;;;11.46;68.66
48792;BME280;34587;48.816;9.420;2022-12-29T16:03:21;98346.34;;;11.52;67.91
48792;BME280;34587;48.816;9.420;2022-12-29T16:06:33;98383.84;;;10.75;70.73
48792;BME280;34587;48.816;9.420;2022-12-29T16:09:18;98394.25;;;9.97;77.35
48792;BME280;34587;48.816;9.420;2022-12-29T16:11:55;98375.03;;;9.69;82.11
48792;BME280;34587;48.816;9.420;2022-12-29T16:14:37;98375.41;;;9.50;83.76
48792;BME280;34587;48.816;9.420;2022-12-29T16:17:06;98374.50;;;9.53;83.74
48792;BME280;34587;48.816;9.420;2022-12-29T16:19:41;98380.00;;;9.36;84.66
48792;BME280;34587;48.816;9.420;2022-12-29T16:22:26;98388.56;;;9.40;85.09
48792;BME280;34587;48.816;9.420;2022-12-29T16:24:55;98393.84;;;9.34;85.48
48792;BME280;34587;48.816;9.420;2022-12-29T16:27:29;98398.34;;;9.24;86.74
48792;BME280;34587;48.816;9.420;2022-12-29T16:29:56;98400.97;;;9.21;87.08
48792;BME280;34587;48.816;9.420;2022-12-29T16:32:30;98396.81;;;9.14;88.45
48792;BME280;34587;48.816;9.420;2022-12-29T16:35:23;98399.56;;;9.05;89.59
48792;BME280;34587;48.816;9.420;2022-12-29T16:38:07;98395.16;;;9.08;89.27
48792;BME280;34587;48.816;9.420;2022-12-29T16:40:38;98399.72;;;8.95;90.54
48792;BME280;34587;48.816;9.420;2022-12-29T16:43:23;98397.13;;;8.95;91.13
48792;BME280;34587;48.816;9.420;2022-12-29T16:48:19;98397.06;;;8.98;92.64
48792;BME280;34587;48.816;9.420;2022-12-29T16:50:46;98396.00;;;9.09;89.29
48792;BME280;34587;48.816;9.420;2022-12-29T16:53:25;98396.97;;;9.05;89.61
48792;BME280;34587;48.816;9.420;2022-12-29T16:55:52;98396.09;;;9.06;89.45
48792;BME280;34587;48.816;9.420;2022-12-29T16:58:29;98396.22;;;8.98;90.31
48792;BME280;34587;48.816;9.420;2022-12-29T17:00:57;98392.81;;;8.94;91.00
48792;BME280;34587;48.816;9.420;2022-12-29T17:03:33;98398.09;;;8.90;91.29
48792;BME280;34587;48.816;9.420;2022-12-29T17:05:59;98405.84;;;8.88;92.52
48792;BME280;34587;48.816;9.420;2022-12-29T17:08:25;98414.50;;;8.87;93.32
48792;BME280;34587;48.816;9.420;2022-12-29T17:10:52;98406.91;;;8.78;93.90
48792;BME280;34587;48.816;9.420;2022-12-29T17:13:36;98403.47;;;8.78;94.64
48792;BME280;34587;48.816;9.420;2022-12-29T17:16:03;98413.69;;;8.85;93.77
48792;BME280;34587;48.816;9.420;2022-12-29T17:18:29;98412.78;;;8.86;93.38
48792;BME280;34587;48.816;9.420;2022-12-29T17:20:54;98413.69;;;8.85;93.80
48792;BME280;34587;48.816;9.420;2022-12-29T17:23:19;98417.06;;;8.87;93.85
48792;BME280;34587;48.816;9.420;2022-12-29T17:25:45;98417.06;;;8.87;93.43
48792;BME280;34587;48.816;9.420;2022-12-29T17:30:41;98425.63;;;8.89;94.14
48792;BME280;34587;48.816;9.420;2022-12-29T17:33:11;98430.78;;;8.92;92.85
48792;BME280;34587;48.816;9.420;2022-12-29T17:35:38;98427.31;;;8.93;93.41
48792;BME280;34587;48.816;9.420;2022-12-29T17:38:18;98430.19;;;8.77;94.19
48792;BME280;34587;48.816;9.420;2022-12-29T17:40:44;98425.16;;;8.67;95.76
48792;BME280;34587;48.816;9.420;2022-12-29T17:43:12;98429.38;;;8.73;95.25
48792;BME280;34587;48.816;9.420;2022-12-29T17:45:39;98427.59;;;8.75;95.19
48792;BME280;34587;48.816;9.420;2022-12-29T17:48:13;98434.53;;;8.73;95.74
48792;BME280;34587;48.816;9.420;2022-12-29T17:50:38;98433.78;;;8.66;96.60
48792;BME280;34587;48.816;9.420;2022-12-29T17:53:06;98432.94;;;8.66;97.53
48792;BME280;34587;48.816;9.420;2022-12-29T17:55:34;98432.94;;;8.66;98.17
48792;BME280;34587;48.816;9.420;2022-12-29T17:58:00;98439.94;;;8.58;98.10
48792;BME280;34587;48.816;9.420;2022-12-29T18:00:27;98434.78;;;8.58;98.68
48792;BME280;34587;48.816;9.420;2022-12-29T18:02:55;98423.47;;;8.65;98.26
48792;BME280;34587;48.816;9.420;2022-12-29T18:05:24;98431.06;;;8.74;97.99
48792;BME280;34587;48.816;9.420;2022-12-29T18:07:52;98431.19;;;8.68;97.95
48792;BME280;34587;48.816;9.420;2022-12-29T18:10:19;98431.06;;;8.74;96.78
48792;BME280;34587;48.816;9.420;2022-12-29T18:12:47;98435.50;;;8.67;97.36
48792;BME280;34587;48.816;9.420;2022-12-29T18:15:21;98434.69;;;8.64;97.42
48792;BME280;34587;48.816;9.420;2022-12-29T18:17:47;98430.28;;;8.69;98.37
48792;BME280;34587;48.816;9.420;2022-12-29T18:20:12;98434.78;;;8.58;98.05
48792;BME280;34587;48.816;9.420;2022-12-29T18:22:38;98432.00;;;8.70;97.99
48792;BME280;34587;48.816;9.420;2022-12-29T18:27:49;98434.75;;;8.61;97.90
48792;BME280;34587;48.816;9.420;2022-12-29T18:30:15;98432.72;;;8.78;96.06
48792;BME280;34587;48.816;9.420;2022-12-29T18:32:41;98442.94;;;8.84;94.94
48792;BME280;34587;48.816;9.420;2022-12-29T18:35:19;98443.06;;;8.78;93.55
48792;BME280;34587;48.816;9.420;2022-12-29T18:37:47;98444.00;;;8.72;93.53
48792;BME280;34587;48.816;9.420;2022-12-29T18:40:12;98451.72;;;8.74;94.18
48792;BME280;34587;48.816;9.420;2022-12-29T18:42:38;98454.16;;;8.83;92.97
48792;BME280;34587;48.816;9.420;2022-12-29T18:45:14;98458.66;;;8.72;93.33
48792;BME280;34587;48.816;9.420;2022-12-29T18:47:40;98461.53;;;8.54;92.65
48792;BME280;34587;48.816;9.420;2022-12-29T18:50:06;98470.16;;;8.53;93.44
48792;BME280;34587;48.816;9.420;2022-12-29T18:52:31;98459.91;;;8.46;94.72
48792;BME280;34587;48.816;9.420;2022-12-29T18:54:56;98466.06;;;8.38;95.61
48792;BME280;34587;48.816;9.420;2022-12-29T18:57:22;98465.16;;;8.42;95.17
48792;BME280;34587;48.816;9.420;2022-12-29T18:59:47;98468.75;;;8.29;97.05
48792;BME280;34587;48.816;9.420;2022-12-29T19:02:15;98464.44;;;8.29;97.29
48792;BME280;34587;48.816;9.420;2022-12-29T19:04:40;98468.00;;;8.19;98.54